createdAt,value
2019-05-20T00:01:48.180Z,10.87
2019-05-20T00:04:15.839Z,11.43
2019-05-20T00:06:43.551Z,13.70
2019-05-20T00:09:12.329Z,13.63
2019-05-20T00:11:41.175Z,11.83
2019-05-20T00:14:08.713Z,10.43
2019-05-20T00:16:36.363Z,12.80
2019-05-20T00:19:03.949Z,13.60
2019-05-20T00:21:31.623Z,12.47
2019-05-20T00:23:59.233Z,10.20
2019-05-20T00:26:26.878Z,11.77
2019-05-20T00:28:54.648Z,11.97
2019-05-20T00:31:22.326Z,11.63
2019-05-20T00:33:49.941Z,11.97
2019-05-20T00:36:17.568Z,11.83
2019-05-20T00:38:48.652Z,9.70
2019-05-20T00:41:16.267Z,11.70
2019-05-20T00:43:43.923Z,11.00
2019-05-20T00:46:11.587Z,10.70
2019-05-20T00:48:39.218Z,11.10
2019-05-20T00:51:06.852Z,11.17
2019-05-20T00:53:34.653Z,10.37
2019-05-20T00:56:02.198Z,12.93
2019-05-20T00:58:31.624Z,10.93
2019-05-20T01:00:59.274Z,11.80
2019-05-20T01:03:26.993Z,11.70
2019-05-20T01:05:54.620Z,10.43
2019-05-20T01:08:22.290Z,11.47
2019-05-20T01:10:52.610Z,11.70
2019-05-20T01:13:20.324Z,11.20
2019-05-20T01:15:49.842Z,11.80
2019-05-20T01:18:20.633Z,13.63
2019-05-20T01:20:48.483Z,15.97
2019-05-20T01:23:16.513Z,12.73
2019-05-20T01:25:44.250Z,13.67
2019-05-20T01:28:11.832Z,13.63
2019-05-20T01:30:41.380Z,11.93
2019-05-20T01:33:13.950Z,12.17
2019-05-20T01:35:38.408Z,12.07
2019-05-20T01:38:06.106Z,11.63
2019-05-20T01:40:33.744Z,11.20
2019-05-20T01:43:01.464Z,13.50
2019-05-20T01:45:30.247Z,12.20
2019-05-20T01:47:57.874Z,11.43
2019-05-20T01:50:25.498Z,13.50
2019-05-20T01:52:53.373Z,11.53
2019-05-20T01:55:22.127Z,12.50
2019-05-20T01:57:49.762Z,12.47
2019-05-20T02:00:19.260Z,10.63
2019-05-20T02:02:46.901Z,11.57
2019-05-20T02:05:14.534Z,11.80
2019-05-20T02:07:42.176Z,12.10
2019-05-20T02:10:10.088Z,13.50
2019-05-20T02:12:37.740Z,12.07
2019-05-20T02:15:18.681Z,13.87
2019-05-20T02:17:46.429Z,11.33
2019-05-20T02:20:14.164Z,12.47
2019-05-20T02:22:41.884Z,12.60
2019-05-20T02:25:09.661Z,13.97
2019-05-20T02:27:37.267Z,11.20
2019-05-20T02:30:05.341Z,12.93
2019-05-20T02:32:32.979Z,11.13
2019-05-20T02:35:00.718Z,13.90
2019-05-20T02:37:29.452Z,12.40
2019-05-20T02:39:57.082Z,13.83
2019-05-20T02:42:24.689Z,12.60
2019-05-20T02:44:52.545Z,12.43
2019-05-20T02:47:20.137Z,10.97
2019-05-20T02:49:47.902Z,10.90
2019-05-20T02:52:15.517Z,14.17
2019-05-20T02:54:43.984Z,10.93
2019-05-20T02:57:11.902Z,11.43
2019-05-20T02:59:39.554Z,10.67
2019-05-20T03:02:07.207Z,11.17
2019-05-20T03:04:34.909Z,10.67
2019-05-20T03:07:02.561Z,12.03
2019-05-20T03:09:30.204Z,12.17
2019-05-20T03:11:57.842Z,11.83
2019-05-20T03:14:25.501Z,12.53
2019-05-20T03:16:54.234Z,13.00
2019-05-20T03:19:25.029Z,13.20
2019-05-20T03:21:53.365Z,14.70
2019-05-20T03:24:20.983Z,13.40
2019-05-20T03:26:48.650Z,13.87
2019-05-20T03:29:18.720Z,14.77
2019-05-20T03:31:46.424Z,15.83
2019-05-20T03:34:42.204Z,15.63
2019-05-20T03:36:43.721Z,13.50
2019-05-20T03:39:13.190Z,14.93
2019-05-20T03:41:40.928Z,15.83
2019-05-20T03:44:09.664Z,12.90
2019-05-20T03:46:37.330Z,12.77
2019-05-20T03:49:04.949Z,12.10
2019-05-20T03:51:32.630Z,12.13
2019-05-20T03:54:00.248Z,13.70
2019-05-20T03:56:27.880Z,11.50
2019-05-20T03:58:55.508Z,12.83
2019-05-20T04:01:23.148Z,10.93
2019-05-20T04:03:50.777Z,12.80
2019-05-20T04:06:18.412Z,10.87
2019-05-20T04:08:46.029Z,12.60
2019-05-20T04:11:13.676Z,15.13
2019-05-20T04:13:43.066Z,12.87
2019-05-20T04:16:11.878Z,12.83
2019-05-20T04:18:41.005Z,13.03
2019-05-20T04:21:08.704Z,13.70
2019-05-20T04:23:36.373Z,11.37
2019-05-20T04:26:05.207Z,13.47
2019-05-20T04:28:32.906Z,13.57
2019-05-20T04:31:00.468Z,15.80
2019-05-20T04:33:28.217Z,15.57
2019-05-20T04:35:55.948Z,13.70
2019-05-20T04:38:24.691Z,14.20
2019-05-20T04:40:52.304Z,14.10
2019-05-20T04:43:19.969Z,12.90
2019-05-20T04:45:47.589Z,12.30
2019-05-20T04:48:15.219Z,11.63
2019-05-20T04:50:42.971Z,13.10
2019-05-20T04:53:10.597Z,11.67
2019-05-20T04:55:38.267Z,13.17
2019-05-20T04:58:05.881Z,13.17
2019-05-20T05:00:54.203Z,12.67
2019-05-20T05:03:22.063Z,13.83
2019-05-20T05:05:50.542Z,14.00
2019-05-20T05:08:18.148Z,12.93
2019-05-20T05:10:47.192Z,13.07
2019-05-20T05:13:14.924Z,14.73
2019-05-20T05:15:42.823Z,13.97
2019-05-20T05:18:10.567Z,14.20
2019-05-20T05:20:38.387Z,15.07
2019-05-20T05:23:06.239Z,16.70
2019-05-20T05:25:34.263Z,15.47
2019-05-20T05:28:02.099Z,16.43
2019-05-20T05:30:30.858Z,15.40
2019-05-20T05:32:58.489Z,16.07
2019-05-20T05:35:26.832Z,17.37
2019-05-20T05:37:54.664Z,15.13
2019-05-20T05:40:27.629Z,16.97
2019-05-20T05:42:55.273Z,15.83
2019-05-20T05:45:29.549Z,16.60
2019-05-20T05:47:57.479Z,15.57
2019-05-20T05:50:25.094Z,17.30
2019-05-20T05:52:52.741Z,16.33
2019-05-20T05:55:20.345Z,15.13
2019-05-20T05:57:48.004Z,16.37
2019-05-20T06:00:16.043Z,17.37
2019-05-20T06:02:43.973Z,15.67
2019-05-20T06:05:11.719Z,15.47
2019-05-20T06:07:39.380Z,16.40
2019-05-20T06:10:07.727Z,15.67
2019-05-20T06:12:35.362Z,15.60
2019-05-20T06:15:05.288Z,16.97
2019-05-20T06:17:33.024Z,14.90
2019-05-20T06:20:00.820Z,15.03
2019-05-20T06:22:28.454Z,17.37
2019-05-20T06:24:56.134Z,15.83
2019-05-20T06:27:23.774Z,17.07
2019-05-20T06:29:52.338Z,16.73
2019-05-20T06:32:19.975Z,19.47
2019-05-20T06:34:47.888Z,17.73
2019-05-20T06:37:17.662Z,18.13
2019-05-20T06:39:45.256Z,18.43
2019-05-20T06:42:12.889Z,17.83
2019-05-20T06:44:52.156Z,17.27
2019-05-20T06:47:09.935Z,18.73
2019-05-20T06:49:37.570Z,21.13
2019-05-20T06:52:07.114Z,17.70
2019-05-20T06:54:34.779Z,18.77
2019-05-20T06:57:02.471Z,17.83
2019-05-20T06:59:31.179Z,18.77
2019-05-20T07:01:58.819Z,19.50
2019-05-20T07:04:26.464Z,17.53
2019-05-20T07:06:54.079Z,17.27
2019-05-20T07:09:21.700Z,18.83
2019-05-20T07:11:52.956Z,16.27
2019-05-20T07:14:19.010Z,17.50
2019-05-20T07:16:49.816Z,18.60
2019-05-20T07:19:17.386Z,18.83
2019-05-20T07:21:45.031Z,17.40
2019-05-20T07:24:12.707Z,19.07
2019-05-20T07:26:40.356Z,20.40
2019-05-20T07:29:08.137Z,19.80
2019-05-20T07:31:35.791Z,20.40
2019-05-20T07:34:03.518Z,20.50
2019-05-20T07:36:31.181Z,18.77
2019-05-20T07:38:59.038Z,22.30
2019-05-20T07:41:26.692Z,19.70
2019-05-20T07:43:54.310Z,20.77
2019-05-20T07:46:22.382Z,19.87
2019-05-20T07:48:50.186Z,19.90
2019-05-20T07:51:19.830Z,20.23
2019-05-20T07:53:47.881Z,20.93
2019-05-20T07:56:19.892Z,21.50
2019-05-20T07:58:51.660Z,21.37
2019-05-20T08:01:21.112Z,22.80
2019-05-20T08:03:48.768Z,22.33
2019-05-20T08:06:16.529Z,22.93
2019-05-20T08:08:44.192Z,22.43
2019-05-20T08:11:11.826Z,25.10
2019-05-20T08:13:39.595Z,21.83
2019-05-20T08:16:07.236Z,22.43
2019-05-20T08:18:34.897Z,25.40
2019-05-20T08:21:04.152Z,24.17
2019-05-20T08:23:31.858Z,24.50
2019-05-20T08:25:59.594Z,24.60
2019-05-20T08:28:27.332Z,24.10
2019-05-20T08:30:55.294Z,23.60
2019-05-20T08:33:23.161Z,25.17
2019-05-20T08:35:50.844Z,24.93
2019-05-20T08:38:18.424Z,22.67
2019-05-20T08:40:48.672Z,22.77
2019-05-20T08:43:16.690Z,21.10
2019-05-20T08:45:44.333Z,20.70
2019-05-20T08:48:11.980Z,21.73
2019-05-20T08:50:39.742Z,21.57
2019-05-20T08:53:07.464Z,22.73
2019-05-20T08:55:35.347Z,20.50
2019-05-20T08:58:03.175Z,23.17
2019-05-20T09:00:31.063Z,24.03
2019-05-20T09:02:58.786Z,23.47
2019-05-20T09:05:28.815Z,21.70
2019-05-20T09:08:03.030Z,23.60
2019-05-20T09:10:26.095Z,21.93
2019-05-20T09:12:55.646Z,22.30
2019-05-20T09:15:23.664Z,22.23
2019-05-20T09:17:51.410Z,22.00
2019-05-20T09:20:19.339Z,21.90
2019-05-20T09:22:48.922Z,21.40
2019-05-20T09:25:23.175Z,22.43
2019-05-20T09:27:50.966Z,23.15
2019-05-20T09:30:18.799Z,20.27
2019-05-20T09:32:46.726Z,22.00
2019-05-20T09:35:14.429Z,22.82
2019-05-20T09:37:42.465Z,19.00
2019-05-20T09:40:10.321Z,21.97
2019-05-20T09:42:41.101Z,21.23
2019-05-20T09:45:09.105Z,20.53
2019-05-20T09:47:36.850Z,21.20
2019-05-20T09:50:05.710Z,20.30
2019-05-20T09:52:33.436Z,20.55
2019-05-20T09:55:01.111Z,21.55
2019-05-20T09:57:29.325Z,20.23
2019-05-20T09:59:57.247Z,20.67
2019-05-20T10:02:33.628Z,19.32
2019-05-20T10:04:54.352Z,19.80
2019-05-20T10:07:22.111Z,19.23
2019-05-20T10:09:49.826Z,20.33
2019-05-20T10:12:17.492Z,22.82
2019-05-20T10:14:45.111Z,19.27
2019-05-20T10:17:12.834Z,18.70
2019-05-20T10:19:41.650Z,19.60
2019-05-20T10:22:09.367Z,18.37
2019-05-20T10:24:37.013Z,19.17
2019-05-20T10:27:04.653Z,19.63
2019-05-20T10:29:32.327Z,19.00
2019-05-20T10:31:59.954Z,17.37
2019-05-20T10:34:27.644Z,18.77
2019-05-20T10:36:55.455Z,19.53
2019-05-20T10:39:23.101Z,19.10
2019-05-20T10:41:50.768Z,18.90
2019-05-20T10:44:19.557Z,17.55
2019-05-20T10:46:47.207Z,18.35
2019-05-20T10:49:15.083Z,20.55
2019-05-20T10:51:42.695Z,16.75
2019-05-20T10:54:10.373Z,21.68
2019-05-20T10:56:38.029Z,18.95
2019-05-20T10:59:05.716Z,18.48
2019-05-20T11:01:33.441Z,18.27
2019-05-20T11:04:01.063Z,19.87
2019-05-20T11:06:28.681Z,18.70
2019-05-20T11:08:56.366Z,16.97
2019-05-20T11:11:24.016Z,18.65
2019-05-20T11:13:51.749Z,19.60
2019-05-20T11:16:21.222Z,18.27
2019-05-20T11:18:48.877Z,18.25
2019-05-20T11:21:16.555Z,17.10
2019-05-20T11:23:45.298Z,18.30
2019-05-20T11:26:13.010Z,17.65
2019-05-20T11:28:40.664Z,16.32
2019-05-20T11:31:08.312Z,17.00
2019-05-20T11:33:35.977Z,19.80
2019-05-20T11:36:03.593Z,19.87
2019-05-20T11:38:31.451Z,15.57
2019-05-20T11:40:58.998Z,17.67
2019-05-20T11:43:26.895Z,16.37
2019-05-20T11:45:54.528Z,18.55
2019-05-20T11:48:22.190Z,20.92
2019-05-20T11:50:49.920Z,16.52
2019-05-20T11:53:17.715Z,15.38
2019-05-20T11:55:45.380Z,17.52
2019-05-20T11:58:16.275Z,17.67
2019-05-20T12:00:43.501Z,17.23
2019-05-20T12:03:11.267Z,16.93
2019-05-20T12:05:40.202Z,19.60
2019-05-20T12:08:07.991Z,16.95
2019-05-20T12:10:35.616Z,18.10
2019-05-20T12:13:05.110Z,15.43
2019-05-20T12:15:32.760Z,16.57
2019-05-20T12:18:00.417Z,16.52
2019-05-20T12:20:28.157Z,15.80
2019-05-20T12:22:55.832Z,15.78
2019-05-20T12:25:25.321Z,15.88
2019-05-20T12:27:52.963Z,16.42
2019-05-20T12:30:20.731Z,18.40
2019-05-20T12:32:48.602Z,15.93
2019-05-20T12:35:16.191Z,17.10
2019-05-20T12:37:45.914Z,16.05
2019-05-20T12:40:14.211Z,15.78
2019-05-20T12:42:41.887Z,15.00
2019-05-20T12:45:09.767Z,15.80
2019-05-20T12:47:37.545Z,13.25
2019-05-20T12:50:05.714Z,12.53
2019-05-20T12:52:33.361Z,13.80
2019-05-20T12:55:07.942Z,17.32
2019-05-20T12:57:30.625Z,15.35
2019-05-20T12:59:58.409Z,12.80
2019-05-20T13:02:26.267Z,15.53
2019-05-20T13:04:53.893Z,13.55
2019-05-20T13:07:21.534Z,13.83
2019-05-20T13:09:49.232Z,13.85
2019-05-20T13:12:17.012Z,12.65
2019-05-20T13:14:44.605Z,12.23
2019-05-20T13:17:12.261Z,14.00
2019-05-20T13:19:41.009Z,12.00
2019-05-20T13:22:08.709Z,13.40
2019-05-20T13:24:36.285Z,10.63
2019-05-20T13:27:03.933Z,13.25
2019-05-20T13:29:31.711Z,10.78
2019-05-20T13:31:59.456Z,12.98
2019-05-20T13:34:27.130Z,12.05
2019-05-20T13:36:54.784Z,10.70
2019-05-20T13:39:42.454Z,10.95
2019-05-20T13:42:12.142Z,11.05
2019-05-20T13:44:43.055Z,9.65
2019-05-20T13:47:11.898Z,10.38
2019-05-20T13:49:39.577Z,12.10
2019-05-20T13:52:07.289Z,12.15
2019-05-20T13:54:36.099Z,9.55
2019-05-20T13:57:03.786Z,10.55
2019-05-20T13:59:31.425Z,9.28
2019-05-20T14:02:00.280Z,9.18
2019-05-20T14:04:27.921Z,10.70
2019-05-20T14:06:55.613Z,9.15
2019-05-20T14:09:23.275Z,9.83
2019-05-20T14:11:51.050Z,8.10
2019-05-20T14:14:18.702Z,8.18
2019-05-20T14:16:47.447Z,7.60
2019-05-20T14:19:15.164Z,9.40
2019-05-20T14:21:42.827Z,7.50
2019-05-20T14:24:10.603Z,8.20
2019-05-20T14:26:38.270Z,8.65
2019-05-20T14:29:06.072Z,9.73
2019-05-20T14:31:33.788Z,8.25
2019-05-20T14:34:01.662Z,9.13
2019-05-20T14:36:39.351Z,8.75
2019-05-20T14:38:59.143Z,9.75
2019-05-20T14:41:26.934Z,8.53
2019-05-20T14:43:54.663Z,9.58
2019-05-20T14:46:22.394Z,9.65
2019-05-20T14:48:50.121Z,9.38
2019-05-20T14:51:18.051Z,8.85
2019-05-20T14:53:46.090Z,8.95
2019-05-20T14:56:15.582Z,9.98
2019-05-20T14:58:43.690Z,8.53
2019-05-20T15:01:11.599Z,9.15
2019-05-20T15:03:39.400Z,9.65
2019-05-20T15:06:07.332Z,8.73
2019-05-20T15:08:35.383Z,9.50
2019-05-20T15:11:04.482Z,8.23
2019-05-20T15:13:33.405Z,11.70
2019-05-20T15:16:01.289Z,12.63
2019-05-20T15:18:29.098Z,10.72
2019-05-20T15:20:56.852Z,13.43
2019-05-20T15:23:24.720Z,10.28
2019-05-20T15:25:52.591Z,12.00
2019-05-20T15:28:20.288Z,11.75
2019-05-20T15:30:49.804Z,13.28
2019-05-20T15:33:17.521Z,11.88
2019-05-20T15:35:46.344Z,11.85
2019-05-20T15:38:14.226Z,12.78
2019-05-20T15:40:42.030Z,10.65
2019-05-20T15:43:11.511Z,12.88
2019-05-20T15:45:39.417Z,12.60
2019-05-20T15:48:07.120Z,12.43
2019-05-20T15:50:36.918Z,10.60
2019-05-20T15:53:04.606Z,12.25
2019-05-20T15:55:34.233Z,12.30
2019-05-20T15:58:03.063Z,11.65
2019-05-20T16:00:31.004Z,12.30
2019-05-20T16:02:58.939Z,16.15
2019-05-20T16:05:26.815Z,7.87
2019-05-20T16:07:54.567Z,6.45
2019-05-20T16:10:22.322Z,6.17
2019-05-20T16:12:50.183Z,6.97
2019-05-20T16:15:18.096Z,7.00
2019-05-20T16:17:48.179Z,5.87
2019-05-20T16:20:15.975Z,8.15
2019-05-20T16:22:43.803Z,7.67
2019-05-20T16:25:12.261Z,8.87
2019-05-20T16:27:40.157Z,7.57
2019-05-20T16:30:09.140Z,6.83
2019-05-20T16:32:37.067Z,6.47
2019-05-20T16:35:05.457Z,7.73
2019-05-20T16:37:33.281Z,8.20
2019-05-20T16:40:01.218Z,9.40
2019-05-20T16:42:29.046Z,7.73
2019-05-20T16:44:58.590Z,8.47
2019-05-20T16:47:26.438Z,10.47
2019-05-20T16:49:55.024Z,7.22
2019-05-20T16:52:23.055Z,9.73
2019-05-20T16:54:50.913Z,8.00
2019-05-20T16:57:18.821Z,11.53
2019-05-20T16:59:46.541Z,11.00
2019-05-20T17:02:14.322Z,7.93
2019-05-20T17:04:42.190Z,8.20
2019-05-20T17:07:10.072Z,9.07
2019-05-20T17:09:37.883Z,8.93
2019-05-20T17:12:05.621Z,6.87
2019-05-20T17:14:33.455Z,7.93
2019-05-20T17:17:01.160Z,7.63
2019-05-20T17:19:28.831Z,5.97
2019-05-20T17:21:56.573Z,10.07
2019-05-20T17:24:24.238Z,9.03
2019-05-20T17:26:52.055Z,9.53
2019-05-20T17:29:19.881Z,7.73
2019-05-20T17:31:47.960Z,8.87
2019-05-20T17:34:15.732Z,6.43
2019-05-20T17:36:43.723Z,6.40
2019-05-20T17:39:11.667Z,5.33
2019-05-20T17:41:39.513Z,6.40
2019-05-20T17:44:07.363Z,7.00
2019-05-20T17:46:35.113Z,7.67
2019-05-20T17:49:02.951Z,6.57
2019-05-20T17:51:30.753Z,6.60
2019-05-20T17:53:58.493Z,6.97
2019-05-20T17:56:27.913Z,7.00
2019-05-20T17:58:55.891Z,5.40
2019-05-20T18:01:23.898Z,6.97
2019-05-20T18:03:53.140Z,8.03
2019-05-20T18:06:23.104Z,8.73
2019-05-20T18:08:53.434Z,8.33
2019-05-20T18:11:22.449Z,8.60
2019-05-20T18:13:50.168Z,7.53
2019-05-20T18:16:18.866Z,8.43
2019-05-20T18:18:46.614Z,10.50
2019-05-20T18:21:14.448Z,9.37
2019-05-20T18:23:42.158Z,10.30
2019-05-20T18:26:10.465Z,10.10
2019-05-20T18:28:38.096Z,9.13
2019-05-20T18:31:05.914Z,9.10
2019-05-20T18:33:33.795Z,9.43
2019-05-20T18:36:01.496Z,8.87
2019-05-20T18:38:29.285Z,7.30
2019-05-20T18:40:57.154Z,8.80
2019-05-20T18:43:24.830Z,8.80
2019-05-20T18:45:53.637Z,7.97
2019-05-20T18:48:21.315Z,8.13
2019-05-20T18:50:48.975Z,7.70
2019-05-20T18:53:16.842Z,10.03
2019-05-20T18:55:44.586Z,6.90
2019-05-20T18:58:12.333Z,4.80
2019-05-20T19:00:40.299Z,5.30
2019-05-20T19:03:08.063Z,3.67
2019-05-20T19:05:37.050Z,3.10
2019-05-20T19:08:05.924Z,3.30
2019-05-20T19:10:33.704Z,3.70
2019-05-20T19:13:02.624Z,3.17
2019-05-20T19:15:30.488Z,4.13
2019-05-20T19:17:58.556Z,5.23
2019-05-20T19:20:26.319Z,4.60
2019-05-20T19:22:54.071Z,5.33
2019-05-20T19:25:21.830Z,4.30
2019-05-20T19:27:49.491Z,3.63
2019-05-20T19:30:18.143Z,3.93
2019-05-20T19:32:46.036Z,3.70
2019-05-20T19:35:13.977Z,3.77
2019-05-20T19:37:41.744Z,3.03
2019-05-20T19:40:10.661Z,4.93
2019-05-20T19:42:38.931Z,3.37
2019-05-20T19:45:08.713Z,3.83
2019-05-20T19:47:37.701Z,4.13
2019-05-20T19:50:07.110Z,4.20
2019-05-20T19:52:35.064Z,14.20
2019-05-20T19:55:03.099Z,4.47
2019-05-20T19:57:31.220Z,3.60
2019-05-20T19:59:59.095Z,4.50
2019-05-20T20:02:27.072Z,5.33
2019-05-20T20:04:54.950Z,6.73
2019-05-20T20:07:23.008Z,5.57
2019-05-20T20:10:02.883Z,5.23
2019-05-20T20:12:30.519Z,4.70
2019-05-20T20:14:58.180Z,5.37
2019-05-20T20:17:25.865Z,5.70
2019-05-20T20:19:53.563Z,5.33
2019-05-20T20:22:21.318Z,5.13
2019-05-20T20:24:49.505Z,4.33
2019-05-20T20:27:18.959Z,6.53
2019-05-20T20:29:46.634Z,4.87
2019-05-20T20:32:16.126Z,4.90
2019-05-20T20:34:43.841Z,6.47
2019-05-20T20:37:11.552Z,4.73
2019-05-20T20:39:39.213Z,6.97
2019-05-20T20:42:06.992Z,4.57
2019-05-20T20:44:34.627Z,6.10
2019-05-20T20:47:02.297Z,5.47
2019-05-20T20:49:30.054Z,5.47
2019-05-20T20:51:57.874Z,6.03
2019-05-20T20:54:26.561Z,5.93
2019-05-20T20:56:54.220Z,6.33
2019-05-20T20:59:21.852Z,5.50
2019-05-20T21:01:49.495Z,4.97
2019-05-20T21:04:17.383Z,5.77
2019-05-20T21:06:45.215Z,5.67
2019-05-20T21:09:12.782Z,5.77
2019-05-20T21:11:40.455Z,8.30
2019-05-20T21:14:08.181Z,6.17
2019-05-20T21:16:36.048Z,6.97
2019-05-20T21:19:03.828Z,8.27
2019-05-20T21:21:32.625Z,8.77
2019-05-20T21:24:00.289Z,9.23
2019-05-20T21:26:28.045Z,10.60
2019-05-20T21:28:55.675Z,9.77
2019-05-20T21:31:23.315Z,9.20
2019-05-20T21:33:50.964Z,9.00
2019-05-20T21:36:18.590Z,12.53
2019-05-20T21:38:46.528Z,12.60
2019-05-20T21:41:14.344Z,13.27
2019-05-20T21:43:41.958Z,12.90
2019-05-20T21:46:09.633Z,14.57
2019-05-20T21:48:37.393Z,14.70
2019-05-20T21:51:05.039Z,13.37
2019-05-20T21:53:32.691Z,15.20
2019-05-20T21:56:00.388Z,14.97
2019-05-20T21:58:28.004Z,15.97
2019-05-20T22:00:55.855Z,14.53
2019-05-20T22:03:25.042Z,15.47
2019-05-20T22:05:54.277Z,14.70
2019-05-20T22:08:22.005Z,16.10
2019-05-20T22:10:51.050Z,15.10
2019-05-20T22:13:18.579Z,14.07
2019-05-20T22:15:46.235Z,14.10
2019-05-20T22:18:13.972Z,15.13
2019-05-20T22:20:41.605Z,15.80
2019-05-20T22:23:35.847Z,15.67
2019-05-20T22:26:03.714Z,12.53
2019-05-20T22:28:31.355Z,16.07
2019-05-20T22:30:59.083Z,14.53
2019-05-20T22:33:40.503Z,14.33
2019-05-20T22:35:58.445Z,13.57
2019-05-20T22:38:26.147Z,16.67
2019-05-20T22:40:53.829Z,15.50
2019-05-20T22:43:21.506Z,16.00
2019-05-20T22:45:49.237Z,15.40
2019-05-20T22:48:16.971Z,14.47
2019-05-20T22:50:44.616Z,13.67
2019-05-20T22:53:12.297Z,15.87
2019-05-20T22:55:39.913Z,15.43
2019-05-20T22:58:07.681Z,14.97
2019-05-20T23:00:35.391Z,15.00
2019-05-20T23:03:03.041Z,15.73
2019-05-20T23:05:30.669Z,18.17
2019-05-20T23:07:59.325Z,16.40
2019-05-20T23:10:26.968Z,16.00
2019-05-20T23:12:54.642Z,15.13
2019-05-20T23:15:22.356Z,17.50
2019-05-20T23:17:50.077Z,16.23
2019-05-20T23:20:18.722Z,16.40
2019-05-20T23:22:46.440Z,15.93
2019-05-20T23:25:14.145Z,14.50
2019-05-20T23:27:41.782Z,14.93
2019-05-20T23:30:10.049Z,17.70
2019-05-20T23:32:37.661Z,15.30
2019-05-20T23:35:05.741Z,15.83
2019-05-20T23:37:33.307Z,15.50
2019-05-20T23:40:00.964Z,15.63
2019-05-20T23:42:28.606Z,18.20
2019-05-20T23:44:56.284Z,15.83
2019-05-20T23:47:23.918Z,17.17
2019-05-20T23:49:51.569Z,16.57
2019-05-20T23:52:19.236Z,16.87
2019-05-20T23:54:46.978Z,16.60
2019-05-20T23:57:14.804Z,16.43
2019-05-20T23:59:44.248Z,16.27
